createdAt,value
2019-04-01T00:00:03.195Z,64.25
2019-04-01T00:05:02.411Z,64.35
2019-04-01T00:10:02.849Z,64.4
2019-04-01T00:15:03.197Z,64.35
2019-04-01T00:20:02.612Z,64.44
2019-04-01T00:25:02.944Z,64.42
2019-04-01T00:30:03.294Z,64.52
2019-04-01T00:35:02.759Z,64.51
2019-04-01T00:40:03.158Z,64.49
2019-04-01T00:45:02.511Z,64.49
2019-04-01T00:50:02.912Z,64.44
2019-04-01T00:55:03.264Z,64.64
2019-04-01T01:00:02.589Z,64.59
2019-04-01T01:05:03.013Z,64.64
2019-04-01T01:10:02.437Z,64.68
2019-04-01T01:15:02.786Z,64.64
2019-04-01T01:20:03.229Z,64.73
2019-04-01T01:25:02.636Z,64.69
2019-04-01T01:30:02.988Z,64.78
2019-04-01T01:35:02.400Z,64.73
2019-04-01T01:40:02.841Z,64.88
2019-04-01T01:45:03.190Z,64.89
2019-04-01T01:50:02.597Z,64.94
2019-04-01T01:55:02.945Z,65.02
2019-04-01T02:00:03.293Z,64.88
2019-04-01T02:05:02.703Z,65.0
2019-04-01T02:10:03.146Z,65.02
2019-04-01T02:15:02.578Z,65.07
2019-04-01T02:20:03.021Z,64.99
2019-04-01T02:25:02.426Z,65.07
2019-04-01T02:30:02.887Z,65.11
2019-04-01T02:35:03.246Z,65.13
2019-04-01T02:40:02.742Z,65.2
2019-04-01T02:45:03.097Z,65.19
2019-04-01T02:50:02.496Z,65.24
2019-04-01T02:55:06.339Z,65.22
2019-04-01T03:00:02.373Z,65.27
2019-04-01T03:05:02.854Z,65.3
2019-04-01T03:10:03.259Z,65.32
2019-04-01T03:15:02.672Z,65.34
2019-04-01T03:20:03.110Z,65.32
2019-04-01T03:25:02.540Z,65.32
2019-04-01T03:30:02.987Z,65.33
2019-04-01T03:35:02.423Z,65.4
2019-04-01T03:40:02.967Z,65.39
2019-04-01T03:45:02.381Z,65.36
2019-04-01T03:50:02.741Z,65.44
2019-04-01T03:55:03.146Z,65.39
2019-04-01T04:00:02.564Z,65.38
2019-04-01T04:05:02.900Z,65.45
2019-04-01T04:10:03.339Z,65.51
2019-04-01T04:15:02.768Z,65.49
2019-04-01T04:20:03.212Z,65.52
2019-04-01T04:25:02.626Z,65.58
2019-04-01T04:30:02.451Z,65.6
2019-04-01T04:35:02.791Z,65.61
2019-04-01T04:40:03.246Z,65.61
2019-04-01T04:45:02.580Z,65.61
2019-04-01T04:50:02.995Z,65.72
2019-04-01T04:55:02.432Z,65.71
2019-04-01T05:00:02.786Z,65.76
2019-04-01T05:05:03.229Z,65.77
2019-04-01T05:10:02.657Z,65.83
2019-04-01T05:15:03.035Z,65.83
2019-04-01T05:20:02.486Z,66.59
2019-04-01T05:25:02.802Z,67.49
2019-04-01T05:30:02.334Z,67.71
2019-04-01T05:35:01.885Z,68.15
2019-04-01T05:40:03.329Z,68.36
2019-04-01T05:45:02.754Z,68.52
2019-04-01T05:50:03.096Z,68.7
2019-04-01T05:55:02.555Z,68.88
2019-04-01T06:00:02.994Z,68.92
2019-04-01T06:05:02.382Z,68.93
2019-04-01T06:10:02.819Z,69.02
2019-04-01T06:15:03.162Z,68.8
2019-04-01T06:20:02.568Z,68.75
2019-04-01T06:25:02.922Z,68.52
2019-04-01T06:30:03.267Z,68.58
2019-04-01T06:35:02.677Z,68.92
2019-04-01T06:40:03.121Z,68.75
2019-04-01T06:45:02.546Z,69.45
2019-04-01T06:50:02.894Z,69.42
2019-04-01T06:55:03.245Z,69.5
2019-04-01T07:00:02.644Z,69.57
2019-04-01T07:05:02.985Z,68.94
2019-04-01T07:10:02.405Z,69.4
2019-04-01T07:15:02.851Z,69.55
2019-04-01T07:20:03.292Z,69.31
2019-04-01T07:25:02.605Z,69.64
2019-04-01T07:30:02.947Z,69.97
2019-04-01T07:35:03.297Z,69.73
2019-04-01T07:40:02.709Z,69.67
2019-04-01T07:45:03.160Z,69.18
2019-04-01T07:50:02.591Z,69.24
2019-04-01T07:55:03.054Z,69.15
2019-04-01T08:00:02.435Z,69.11
2019-04-01T08:05:02.915Z,68.53
2019-04-01T08:10:03.728Z,68.32
2019-04-01T08:15:02.469Z,68.26
2019-04-01T08:20:02.870Z,68.21
2019-04-01T08:25:03.351Z,67.88
2019-04-01T08:30:02.739Z,67.67
2019-04-01T08:35:03.184Z,67.6
2019-04-01T08:40:02.591Z,67.77
2019-04-01T08:45:02.939Z,67.57
2019-04-01T08:50:03.285Z,67.01
2019-04-01T08:55:02.703Z,66.61
2019-04-01T09:00:03.041Z,66.85
2019-04-01T09:05:02.469Z,66.08
2019-04-01T09:10:02.907Z,66.24
2019-04-01T09:15:03.343Z,66.02
2019-04-01T09:20:02.802Z,65.37
2019-04-01T09:25:03.223Z,64.01
2019-04-01T09:30:02.666Z,64.21
2019-04-01T09:35:03.103Z,64.36
2019-04-01T09:40:02.529Z,64.05
2019-04-01T09:45:02.977Z,63.68
2019-04-01T09:50:02.359Z,64.19
2019-04-01T09:55:06.036Z,62.33
2019-04-01T10:00:02.766Z,61.83
2019-04-01T10:05:03.182Z,61.13
2019-04-01T10:10:02.629Z,62.43
2019-04-01T10:15:03.079Z,60.63
2019-04-01T10:20:02.528Z,59.64
2019-04-01T10:25:02.939Z,61.45
2019-04-01T10:30:03.353Z,59.7
2019-04-01T10:35:02.765Z,59.8
2019-04-01T10:40:03.239Z,59.67
2019-04-01T10:45:02.648Z,60.41
2019-04-01T10:50:02.232Z,57.56
2019-04-01T10:55:02.795Z,54.53
2019-04-01T11:00:03.271Z,55.03
2019-04-01T11:05:02.710Z,56.76
2019-04-01T11:10:03.420Z,56.32
2019-04-01T11:15:02.830Z,58.51
2019-04-01T11:20:03.265Z,56.92
2019-04-01T11:25:02.684Z,57.22
2019-04-01T11:30:03.023Z,56.11
2019-04-01T11:35:02.408Z,55.77
2019-04-01T11:40:02.897Z,53.72
2019-04-01T11:45:05.810Z,53.93
2019-04-01T11:50:02.582Z,54.22
2019-04-01T11:55:06.225Z,56.38
2019-04-01T12:00:03.022Z,58.59
2019-04-01T12:05:02.474Z,56.41
2019-04-01T12:10:02.883Z,56.68
2019-04-01T12:15:03.338Z,56.98
2019-04-01T12:20:02.760Z,56.98
2019-04-01T12:25:03.191Z,54.25
2019-04-01T12:30:02.644Z,48.56
2019-04-01T12:35:03.073Z,56.41
2019-04-01T12:40:02.497Z,41.54
2019-04-01T12:45:02.962Z,44.59
2019-04-01T12:50:03.392Z,50.17
2019-04-01T12:55:02.821Z,50.47
2019-04-01T13:00:03.269Z,49.59
2019-04-01T13:05:02.678Z,50.42
2019-04-01T13:10:03.219Z,52.93
2019-04-01T13:15:02.590Z,53.17
2019-04-01T13:20:03.102Z,51.33
2019-04-01T13:25:05.664Z,53.94
2019-04-01T13:30:03.207Z,49.46
2019-04-01T13:35:02.630Z,50.27
2019-04-01T13:40:03.122Z,45.03
2019-04-01T13:45:02.662Z,47.76
2019-04-01T13:50:03.673Z,47.66
2019-04-01T13:55:02.390Z,46.35
2019-04-01T14:00:02.803Z,44.36
2019-04-01T14:05:05.913Z,45.7
2019-04-01T14:10:02.859Z,45.37
2019-04-01T14:15:03.310Z,47.58
2019-04-01T14:20:02.726Z,42.08
2019-04-01T14:25:03.061Z,48.11
2019-04-01T14:30:02.522Z,48.08
2019-04-01T14:35:03.652Z,48.15
2019-04-01T14:40:03.071Z,47.24
2019-04-01T14:45:02.510Z,49.2
2019-04-01T14:50:03.071Z,48.57
2019-04-01T14:55:03.071Z,48.48
2019-04-01T15:00:02.509Z,50.62
2019-04-01T15:05:04.829Z,50.99
2019-04-01T15:10:02.532Z,50.27
2019-04-01T15:15:04.161Z,49.37
2019-04-01T15:20:02.833Z,50.6
2019-04-01T15:25:03.263Z,50.68
2019-04-01T15:30:02.683Z,49.95
2019-04-01T15:35:03.002Z,50.78
2019-04-01T15:40:02.476Z,51.36
2019-04-01T15:45:02.879Z,49.93
2019-04-01T15:50:03.225Z,49.28
2019-04-01T15:55:02.866Z,51.3
2019-04-01T16:00:03.425Z,50.29
2019-04-01T16:05:03.005Z,50.25
2019-04-01T16:10:02.436Z,51.66
2019-04-01T16:15:02.877Z,52.0
2019-04-01T16:20:03.323Z,51.8
2019-04-01T16:25:02.731Z,51.81
2019-04-01T16:30:03.079Z,51.62
2019-04-01T16:35:02.505Z,51.95
2019-04-01T16:40:05.712Z,52.43
2019-04-01T16:45:02.360Z,52.18
2019-04-01T16:50:02.698Z,51.67
2019-04-01T16:55:03.039Z,52.69
2019-04-01T17:00:02.468Z,52.64
2019-04-01T17:05:02.923Z,53.28
2019-04-01T17:10:04.087Z,52.85
2019-04-01T17:15:03.614Z,53.19
2019-04-01T17:20:03.164Z,53.71
2019-04-01T17:25:02.527Z,53.57
2019-04-01T17:30:02.925Z,53.52
2019-04-01T17:35:03.322Z,54.05
2019-04-01T17:40:02.868Z,54.14
2019-04-01T17:45:03.281Z,54.26
2019-04-01T17:50:02.729Z,53.8
2019-04-01T17:55:03.136Z,54.49
2019-04-01T18:00:02.472Z,54.64
2019-04-01T18:05:02.904Z,55.12
2019-04-01T18:10:03.338Z,55.3
2019-04-01T18:15:02.690Z,55.65
2019-04-01T18:20:03.060Z,55.87
2019-04-01T18:25:02.800Z,56.22
2019-04-01T18:30:03.176Z,56.39
2019-04-01T18:35:04.203Z,56.68
2019-04-01T18:40:02.829Z,56.84
2019-04-01T18:45:03.157Z,57.05
2019-04-01T18:50:02.593Z,57.16
2019-04-01T18:55:03.024Z,57.35
2019-04-01T19:00:02.479Z,57.58
2019-04-01T19:05:02.887Z,57.72
2019-04-01T19:10:06.282Z,57.84
2019-04-01T19:15:03.301Z,57.99
2019-04-01T19:20:02.671Z,58.03
2019-04-01T19:25:03.026Z,58.23
2019-04-01T19:30:02.477Z,58.35
2019-04-01T19:35:02.899Z,58.49
2019-04-01T19:40:02.439Z,58.52
2019-04-01T19:45:02.847Z,58.64
2019-04-01T19:50:03.193Z,58.72
2019-04-01T19:55:03.452Z,58.85
2019-04-01T20:00:03.051Z,58.9
2019-04-01T20:05:02.500Z,59.05
2019-04-01T20:10:04.733Z,59.14
2019-04-01T20:15:03.368Z,59.24
2019-04-01T20:20:02.927Z,59.3
2019-04-01T20:25:03.338Z,59.4
2019-04-01T20:30:02.741Z,59.47
2019-04-01T20:35:03.113Z,59.54
2019-04-01T20:40:02.607Z,59.62
2019-04-01T20:45:03.050Z,59.75
2019-04-01T20:50:02.470Z,59.86
2019-04-01T20:55:02.861Z,59.96
2019-04-01T21:00:03.257Z,60.01
2019-04-01T21:05:02.698Z,60.14
2019-04-01T21:10:03.114Z,60.2
2019-04-01T21:15:02.577Z,60.23
2019-04-01T21:20:02.974Z,60.38
2019-04-01T21:25:02.571Z,60.47
2019-04-01T21:30:02.979Z,60.53
2019-04-01T21:35:02.397Z,60.55
2019-04-01T21:40:02.865Z,60.63
2019-04-01T21:45:03.256Z,60.64
2019-04-01T21:50:02.695Z,60.76
2019-04-01T21:55:03.103Z,60.81
2019-04-01T22:00:02.568Z,60.86
2019-04-01T22:05:03.010Z,60.98
2019-04-01T22:10:03.199Z,61.0
2019-04-01T22:15:02.874Z,61.04
2019-04-01T22:20:03.326Z,61.12
2019-04-01T22:25:02.739Z,61.19
2019-04-01T22:30:03.177Z,61.21
2019-04-01T22:35:05.144Z,61.28
2019-04-01T22:40:02.951Z,61.3
2019-04-01T22:45:03.351Z,61.42
2019-04-01T22:50:02.797Z,61.42
2019-04-01T22:55:03.168Z,61.45
2019-04-01T23:00:02.544Z,61.51
2019-04-01T23:05:02.784Z,61.54
2019-04-01T23:10:03.245Z,61.58
2019-04-01T23:15:02.659Z,61.62
2019-04-01T23:20:03.570Z,61.65
2019-04-01T23:25:02.437Z,61.68
2019-04-01T23:30:02.821Z,61.75
2019-04-01T23:35:03.148Z,61.86
2019-04-01T23:40:03.400Z,61.86
2019-04-01T23:45:03.052Z,61.98
2019-04-01T23:50:02.448Z,62.02
2019-04-01T23:55:02.787Z,62.02
